Terminal Aerodrome Forecast
Issued by NWS Memphis, TN

Home | Current Version | Previous Version | Text Only | Print | Product List | Glossary On
Versions: 1 2 3 4 5 6 7 8 9 10 11 12 13 14 15 16 17 18 19
209
FTUS44 KMEG 301736
TAFJBR
TAF
KJBR 301736Z 3018/0118 19015G22KT P6SM BKN050 OVC120
     FM010400 18007KT P6SM VCTS SCT050CB BKN250
     FM010700 21004KT P6SM OVC012
     FM011500 25007KT P6SM BKN025=

USA.gov is the U.S. government's official web portal to all federal, state and local government web resources and services.